ADDS METAR Data INFO
IDs: Format: Raw Decoded Include TAF

Data at: 0512 UTC 22 Jul 2017

KSSF 220453Z AUTO 14008KT 10SM CLR 29/22 A2996 RMK AO2 SLP129 T02890217
KSSF 220353Z AUTO 14010KT 10SM CLR 31/21 A2995 RMK AO2 SLP126 T03060206
KSSF 220253Z 14011KT 10SM CLR 32/20 A2993 RMK AO2 SLP120 T03170200 53017
KSSF 220153Z 15010KT 10SM FEW070 34/19 A2990 RMK AO2 SLP109 T03390194
KSSF 220053Z 14010KT 10SM CLR 36/17 A2988 RMK AO2 SLP104 T03610172
KSSF 212353Z 12011KT 10SM SCT080 38/17 A2988 RMK AO2 SLP103 T03780172 10394 20361 56016
KSSF 212253Z 12011KT 10SM SCT080 39/17 A2989 RMK AO2 SLP104 T03890172
KSSF 212153Z 12016KT 10SM CLR 39/16 A2990 RMK AO2 SLP110 T03890161
KSSF 212053Z 18012G16KT 10SM SCT080 39/16 A2992 RMK AO2 SLP118 T03940161 58025
KSSF 211953Z 17008G16KT 10SM CLR 39/17 A2995 RMK AO2 SLP128 T03890172
KSSF 211853Z 13008KT 10SM CLR 38/17 A2998 RMK AO2 SLP138 T03780172
KSSF 211753Z 14009KT 10SM CLR 36/18 A3000 RMK AO2 SLP143 T03610183 10367 20244 58013
KSSF 211653Z VRB05KT 10SM CLR 34/19 A3002 RMK AO2 SLP150 T03440194
KSSF 211553Z 21006KT 10SM CLR 33/20 A3003 RMK AO2 SLP155 T03280200
KSSF 211453Z VRB05KT 10SM CLR 31/22 A3004 RMK AO2 SLP156 T03060217 50009 $
KSSF 211353Z VRB03KT 10SM CLR 28/23 A3004 RMK AO2 SLP157 T02830228 $
KSSF 211253Z 08003KT 10SM CLR 27/23 A3002 RMK AO2 SLP152 T02670233 $
KSSF 211153Z 00000KT 10SM CLR 24/22 A3001 RMK AO2 SLP148 T02440222 10283 20244 53002 $
KSSF 211053Z AUTO 09003KT 10SM CLR 25/22 A2999 RMK AO2 SLP142 T02500222 $
KSSF 210953Z AUTO 00000KT 10SM CLR 26/22 A2998 RMK AO2 SLP139 T02560222 $
KSSF 210853Z AUTO 12003KT 10SM CLR 26/22 A3000 RMK AO2 SLP144 T02610222 58008 $
KSSF 210753Z AUTO 00000KT 10SM CLR 27/22 A3001 RMK AO2 SLP147 T02670222 $
KSSF 210653Z AUTO 15006KT 10SM CLR 28/22 A3002 RMK AO2 SLP150 T02780222 $
KSSF 210553Z AUTO 15008KT 10SM CLR 28/22 A3003 RMK AO2 SLP152 T02830217 10383 20283 403940250 51016 $
KSSF 210453Z AUTO 14008KT 10SM CLR 29/21 A3003 RMK AO2 SLP152 T02940206 $
KSSF 210353Z AUTO 15011G19KT 10SM CLR 31/20 A3000 RMK AO2 SLP144 T03110200 $
KSSF 210253Z 14012KT 10SM CLR 32/20 A2998 RMK AO2 SLP137 T03220200 53015 $
KSSF 210153Z 13013G22KT 10SM CLR 33/20 A2996 RMK AO2 SLP131 T03330200 $
KSSF 210053Z 11011KT 10SM FEW080 36/18 A2994 RMK AO2 SLP125 T03610183 $
KSSF 202353Z 12011KT 10SM SCT080 38/18 A2993 RMK AO2 SLP122 T03780178 10394 20350 56020 $
KSSF 202253Z 12012G18KT 10SM CLR 39/18 A2995 RMK AO2 SLP126 T03890178 $
KSSF 202153Z 13008G15KT 10SM FEW080 37/17 A2997 RMK AO2 SLP135 T03720172 $
KSSF 202053Z 07007KT 040V100 10SM SCT075 38/18 A2999 RMK AO2 SLP141 T03830183 58028 $
KSSF 201953Z 14007G16KT 10SM CLR 38/18 A3002 RMK AO2 SLP151 T03830178 $
KSSF 201853Z 10SM CLR 37/18 A3005 RMK AO2 SLP162 T03670183 $
KSSF 201753Z 20008KT 10SM CLR 36/20 A3008 RMK AO2 SLP171 T03560200 10367 20250 58019 $